Fremont, NE

9:02 PM CDT on September 15, 2014 (GMT -0500)
Wahoo Municipal | Change Station
CLOSE
Current Station
Airport
Location: Wahoo,
Elevation: 1224 ft
Nearby Weather Stations

Elev 1224 ft 41.24 °N, 96.59 °W | Updated 7 minutes ago

Clear
Clear
50 °F
Feels Like 50 °F
N
4
Wind Variable Wind from North

Today
High -- | Low -- °F
--% Chance of Precip.
Yesterday
High -- | Low -- °F
Precip. -- in
7:06 AM 7:35 PM
Waning Gibbous, 50% visible
Pressure 30.25 in
Visibility 10.0 miles
Clouds Clear
Dew Point 46 °F
Humidity 85%
Rainfall 0.06 in
Snow Depth Not available.
UV 0 out of 12
Pollen 4.80 out of 12
Air Quality Not available.
Flu Activity Not available.
METAR KAHQ 160155Z AUTO 01003KT 10SM CLR 10/08 A3025 RMK AO2 T01000075

More Conditions Fewer Conditions

Pressure 30.25 in
Visibility 10.0 miles
Clouds Clear
Dew Point 46 °F
Humidity 85%
Rainfall 0.06 in
Snow Depth Not available.
UV 0 out of 12
Pollen 4.80 out of 12
Air Quality Not available.
Flu Activity Not available.
METAR KAHQ 160155Z AUTO 01003KT 10SM CLR 10/08 A3025 RMK AO2 T01000075

More Conditions Fewer Conditions

10-Day Weather Forecast

Almanac

Astronomy

Sep. 15, 2014 Rise Set
Actual Time 7:06 AM CDT 7:35 PM CDT
Civil Twilight 6:38 AM CDT 8:02 PM CDT
Nautical Twilight 6:05 AM CDT 8:35 PM CDT
Astronomical Twilight 5:32 AM CDT 9:09 PM CDT
Moon No Moon Rise 2:11 PM CDT (9/15)
Length of Visible Light 13h 24m
Length of Day
12h 28m
Tomorrow will be 2m 44s shorter.
Waning Gibbous, 50% of the Moon is Illuminated
Today
Waning Gibbous
Sep 15
Last Quarter
Sep 24
New
Oct 1
First Quarter
Oct 8
Full

Today's Extremes

State Highs State Lows

Community

WunderPhotos

Upload Photos

1,753,650 photos uploaded!

WunderBlogs® & News

Nearby

Snow Depth

Station Depth Elevation
No new snow has been reported.

Earthquake Activity

City Distance Mag. Time & Date
No recent earthquake activity has been reported nearby.
Minimum magnitude displayed is 2.5.

Coastal Water Temperatures

Place Temperature
No Stations Reporting

Nearby Weather Stations